Time;durP1;ratioP1;P1;durP2;ratioP2;P2;SDS_P1;SDS_P2;PMS_P1;PMS_P2;Temp;Humidity;BMP_temperature;BMP_pressure;BME280_temperature;BME280_humidity;BME280_pressure;Samples;Min_cycle;Max_cycle;Signal;HPM_P1;HPM_P2
2021/03/19 00:00:38;;;;;;;22.63;16.57;;;;;;;3.24;75.59;94582.78;5055866;28;20537;-74
2021/03/19 00:03:04;;;;;;;27.80;15.40;;;;;;;3.24;75.60;94578.44;5055670;28;20449;-74
2021/03/19 00:05:32;;;;;;;26.13;15.70;;;;;;;3.21;75.57;94577.78;5055924;28;20453;-75
2021/03/19 00:07:59;;;;;;;30.70;16.97;;;;;;;3.21;75.51;94577.78;5056072;28;20437;-74
2021/03/19 00:10:28;;;;;;;27.63;16.37;;;;;;;3.20;75.99;94571.75;5055452;28;20996;-75
2021/03/19 00:12:55;;;;;;;29.63;17.90;;;;;;;3.20;75.46;94576.94;5055482;28;20450;-74
2021/03/19 00:15:25;;;;;;;31.93;18.10;;;;;;;3.20;76.91;94576.13;5056007;28;20460;-74
2021/03/19 00:17:52;;;;;;;30.70;18.23;;;;;;;3.21;76.75;94572.59;5055771;28;20479;-74
2021/03/19 00:20:19;;;;;;;27.60;17.53;;;;;;;3.18;77.01;94573.63;5056218;28;20441;-74
2021/03/19 00:22:45;;;;;;;31.40;17.63;;;;;;;3.20;76.36;94569.16;5055663;28;20964;-74
2021/03/19 00:25:14;;;;;;;31.87;17.33;;;;;;;3.19;76.93;94577.88;5056040;28;20955;-75
2021/03/19 00:27:40;;;;;;;29.97;16.20;;;;;;;3.21;76.48;94578.63;5020902;28;20457;-74
2021/03/19 00:30:10;;;;;;;26.70;15.87;;;;;;;3.20;76.26;94579.53;5055083;28;20934;-74
2021/03/19 00:32:38;;;;;;;28.43;16.90;;;;;;;3.21;75.99;94576.03;5054707;28;20945;-74
2021/03/19 00:35:06;;;;;;;30.53;16.63;;;;;;;3.22;76.55;94584.63;5055224;28;20948;-75
2021/03/19 00:37:32;;;;;;;28.83;15.40;;;;;;;3.27;76.18;94580.00;5036408;28;20499;-76
2021/03/19 00:39:59;;;;;;;28.87;15.37;;;;;;;3.29;76.13;94580.72;5055484;28;20532;-74
2021/03/19 00:42:25;;;;;;;34.70;14.73;;;;;;;3.30;75.39;94577.22;5019899;28;20456;-74
2021/03/19 00:44:52;;;;;;;29.90;15.27;;;;;;;3.36;75.34;94582.00;5055021;28;20448;-74
2021/03/19 00:47:18;;;;;;;34.87;16.10;;;;;;;3.38;74.83;94569.78;5055317;28;20460;-74
2021/03/19 00:49:45;;;;;;;24.20;15.93;;;;;;;3.42;75.29;94566.06;5055019;28;20503;-75
2021/03/19 00:52:12;;;;;;;27.53;15.13;;;;;;;3.41;75.42;94564.41;5054637;28;20507;-75
2021/03/19 00:54:38;;;;;;;26.03;16.93;;;;;;;3.43;75.21;94572.91;5054604;28;20443;-75
2021/03/19 00:57:05;;;;;;;26.50;14.20;;;;;;;3.39;75.90;94571.44;5055006;28;20437;-74
2021/03/19 00:59:32;;;;;;;26.37;15.00;;;;;;;3.41;75.96;94579.97;5054777;28;20514;-74
2021/03/19 01:01:58;;;;;;;19.00;13.17;;;;;;;3.41;75.86;94583.38;5019648;28;20486;-75
2021/03/19 01:04:26;;;;;;;27.03;13.37;;;;;;;3.46;76.08;94575.31;5054665;28;20814;-73
2021/03/19 01:06:53;;;;;;;21.90;14.30;;;;;;;3.50;75.70;94582.00;5054695;28;20460;-74
2021/03/19 01:09:20;;;;;;;23.17;14.80;;;;;;;3.49;75.22;94572.56;5054744;28;20441;-74
2021/03/19 01:11:46;;;;;;;28.10;15.87;;;;;;;3.49;75.69;94567.38;5054438;28;20488;-74
2021/03/19 01:14:14;;;;;;;28.30;15.47;;;;;;;3.46;74.84;94571.88;5054344;28;20449;-74
2021/03/19 01:16:40;;;;;;;27.70;15.27;;;;;;;3.45;75.08;94573.66;5054367;28;20779;-74
2021/03/19 01:19:06;;;;;;;26.43;13.90;;;;;;;3.46;76.01;94567.53;5054006;28;20464;-74
2021/03/19 01:21:33;;;;;;;29.30;17.30;;;;;;;3.50;76.13;94561.25;5054394;28;20445;-74
2021/03/19 01:24:00;;;;;;;26.67;14.80;;;;;;;3.53;75.35;94562.81;5054240;28;20433;-74
2021/03/19 01:26:27;;;;;;;22.00;14.50;;;;;;;3.56;74.97;94565.22;5019257;28;20955;-74
2021/03/19 01:28:53;;;;;;;24.33;16.87;;;;;;;3.58;75.36;94566.78;5054018;28;20479;-74
2021/03/19 01:31:19;;;;;;;30.50;16.10;;;;;;;3.62;75.00;94568.25;5019131;28;20493;-75
2021/03/19 01:33:46;;;;;;;25.37;14.90;;;;;;;3.66;75.02;94561.94;5054097;28;20456;-75
2021/03/19 01:36:12;;;;;;;27.03;18.03;;;;;;;3.69;75.75;94559.16;5053976;28;20461;-75
2021/03/19 01:38:39;;;;;;;23.53;16.30;;;;;;;3.72;75.55;94564.13;5053902;28;20442;-74
2021/03/19 01:41:08;;;;;;;26.70;15.97;;;;;;;3.73;76.13;94558.03;5053791;28;20775;-74
2021/03/19 01:43:36;;;;;;;23.00;14.77;;;;;;;3.67;74.75;94561.00;5053940;28;20441;-75
2021/03/19 01:46:39;;;;;;;22.60;14.93;;;;;;;3.68;75.00;94562.66;5053690;28;20458;-74
2021/03/19 01:49:43;;;;;;;21.40;14.83;;;;;;;3.68;76.17;94557.47;5053593;28;20449;-74
2021/03/19 01:52:46;;;;;;;24.23;15.40;;;;;;;3.69;74.93;94558.31;5053715;28;20488;-74
2021/03/19 01:55:49;;;;;;;32.20;15.50;;;;;;;3.62;75.75;94560.47;5053586;28;20871;-74
2021/03/19 01:58:53;;;;;;;23.90;15.27;;;;;;;3.47;75.59;94552.81;5053409;28;20524;-74
2021/03/19 02:01:56;;;;;;;25.47;16.50;;;;;;;3.42;75.46;94550.50;5054125;28;20841;-74
2021/03/19 02:05:00;;;;;;;24.60;15.80;;;;;;;3.43;76.00;94546.97;5053400;28;20448;-74
2021/03/19 02:08:03;;;;;;;22.63;15.23;;;;;;;3.51;76.74;94554.31;5053304;28;20447;-74
2021/03/19 02:11:06;;;;;;;26.77;14.60;;;;;;;3.50;76.96;94556.06;5053278;28;20472;-74
2021/03/19 02:14:10;;;;;;;22.90;17.10;;;;;;;3.49;76.80;94545.78;5053163;28;20460;-74
2021/03/19 02:17:13;;;;;;;23.90;15.87;;;;;;;3.51;77.07;94547.34;5053637;28;20787;-74
2021/03/19 02:20:17;;;;;;;58.33;31.80;;;;;;;3.53;77.25;94547.25;5053237;28;20444;-74
2021/03/19 02:23:20;;;;;;;58.43;37.83;;;;;;;3.57;77.55;94548.72;5053247;28;20445;-74
2021/03/19 02:26:23;;;;;;;52.13;34.03;;;;;;;3.59;77.21;94552.88;5053310;28;20929;-74
2021/03/19 02:29:27;;;;;;;51.40;33.43;;;;;;;3.62;76.75;94550.09;5053401;28;20454;-74
2021/03/19 02:32:07;;;;;;;50.77;35.63;;;;;;;3.64;76.77;94550.81;5053433;28;20496;-73
2021/03/19 02:34:38;;;;;;;43.60;28.03;;;;;;;3.57;76.04;94554.75;5053445;28;20456;-74
2021/03/19 02:37:05;;;;;;;37.83;24.03;;;;;;;3.53;76.01;94547.25;5034321;28;20433;-74
2021/03/19 02:39:31;;;;;;;41.83;23.57;;;;;;;3.48;76.44;94554.50;5052983;28;20460;-74
2021/03/19 02:41:57;;;;;;;42.67;25.37;;;;;;;3.41;75.82;94547.06;5053169;28;20444;-74
2021/03/19 02:44:24;;;;;;;37.00;22.13;;;;;;;3.40;77.65;94548.00;5052939;28;20473;-74
2021/03/19 02:46:50;;;;;;;35.80;22.47;;;;;;;3.37;77.60;94543.00;5053151;28;20454;-73
2021/03/19 02:49:17;;;;;;;39.20;22.43;;;;;;;3.37;77.88;94542.19;5053249;28;20467;-74
2021/03/19 02:51:44;;;;;;;31.87;19.77;;;;;;;3.35;78.16;94537.09;5052759;28;20507;-74
2021/03/19 02:54:10;;;;;;;30.03;18.03;;;;;;;3.29;78.52;94536.66;5053343;28;20991;-74
2021/03/19 02:56:36;;;;;;;38.03;22.30;;;;;;;3.27;78.13;94535.91;5055833;28;20437;-74
2021/03/19 02:59:03;;;;;;;32.00;21.30;;;;;;;3.27;77.81;94541.09;5057146;28;20497;-74
2021/03/19 03:01:29;;;;;;;37.50;20.90;;;;;;;3.29;78.96;94537.47;5021828;28;20444;-74
2021/03/19 03:03:56;;;;;;;32.53;20.97;;;;;;;3.31;78.78;94537.38;5056997;28;20831;-74
2021/03/19 03:06:35;;;;;;;31.83;20.97;;;;;;;3.35;78.20;94538.84;5021818;28;20828;-74
2021/03/19 03:09:02;;;;;;;31.90;20.67;;;;;;;3.34;77.98;94530.25;5056833;28;20451;-74
2021/03/19 03:11:28;;;;;;;36.17;22.30;;;;;;;3.36;77.76;94537.94;5057041;28;20511;-74
2021/03/19 03:13:55;;;;;;;32.20;20.80;;;;;;;3.37;77.91;94526.63;5056478;28;20456;-74
2021/03/19 03:16:22;;;;;;;37.50;21.63;;;;;;;3.41;78.21;94535.88;5057064;28;20506;-74
2021/03/19 03:18:48;;;;;;;39.83;23.27;;;;;;;3.42;78.25;94530.59;5056855;28;20456;-74
2021/03/19 03:21:15;;;;;;;41.77;25.57;;;;;;;3.45;78.15;94534.75;5056867;28;20863;-73
2021/03/19 03:23:42;;;;;;;40.47;24.43;;;;;;;3.47;77.90;94534.66;5056909;28;20528;-74
2021/03/19 03:26:08;;;;;;;42.73;24.73;;;;;;;3.48;77.89;94529.41;5056278;28;20449;-74
2021/03/19 03:28:34;;;;;;;38.77;24.80;;;;;;;3.43;77.88;94526.22;5056384;28;20988;-74
2021/03/19 03:31:01;;;;;;;40.10;23.93;;;;;;;3.44;78.76;94530.50;5056570;28;20497;-74
2021/03/19 03:33:27;;;;;;;31.97;21.50;;;;;;;3.43;78.20;94526.22;5056579;28;20912;-73
2021/03/19 03:35:54;;;;;;;39.03;23.67;;;;;;;3.42;78.39;94532.34;5056438;28;20446;-74
2021/03/19 03:38:23;;;;;;;34.43;23.57;;;;;;;3.31;78.46;94534.78;5056431;28;20446;-74
2021/03/19 03:40:54;;;;;;;38.27;24.23;;;;;;;3.24;78.73;94531.75;5056246;28;20482;-73
2021/03/19 03:43:21;;;;;;;37.50;24.40;;;;;;;3.23;79.20;94527.50;5056088;28;20453;-74
2021/03/19 03:45:47;;;;;;;44.23;23.90;;;;;;;3.22;79.63;94532.78;5055810;28;20449;-73
2021/03/19 03:48:17;;;;;;;36.20;23.67;;;;;;;3.25;79.33;94532.59;5056370;28;20543;-74
2021/03/19 03:50:45;;;;;;;37.83;23.30;;;;;;;3.21;79.41;94533.72;5055991;28;20535;-74
2021/03/19 03:53:13;;;;;;;38.77;24.87;;;;;;;3.20;79.18;94525.09;5056177;28;20441;-74
2021/03/19 03:55:41;;;;;;;45.67;23.90;;;;;;;3.22;79.28;94531.03;5055744;28;20933;-74
2021/03/19 03:58:09;;;;;;;37.33;24.80;;;;;;;3.22;78.74;94530.19;5056072;28;20446;-74
2021/03/19 04:00:36;;;;;;;35.03;23.93;;;;;;;3.25;79.45;94535.19;5037255;28;20445;-74
2021/03/19 04:03:04;;;;;;;39.10;24.70;;;;;;;3.23;78.82;94535.28;5037108;28;20441;-74
2021/03/19 04:05:37;;;;;;;42.17;26.00;;;;;;;3.21;79.15;94531.13;5055665;28;20837;-74
2021/03/19 04:08:04;;;;;;;40.97;24.97;;;;;;;3.20;78.47;94530.28;5054637;28;20449;-75
2021/03/19 04:10:30;;;;;;;42.27;25.27;;;;;;;3.18;78.83;94536.47;5055809;28;20516;-74
2021/03/19 04:12:57;;;;;;;53.27;29.20;;;;;;;3.17;78.65;94534.78;5055684;28;20922;-74
2021/03/19 04:15:24;;;;;;;41.67;26.27;;;;;;;3.19;79.53;94543.34;5055602;28;20464;-74
2021/03/19 04:17:55;;;;;;;44.23;26.50;;;;;;;3.22;79.07;94545.75;5055680;28;20448;-74
2021/03/19 04:20:23;;;;;;;43.00;26.20;;;;;;;3.23;79.19;94557.78;5055751;28;20494;-74
2021/03/19 04:22:49;;;;;;;47.60;29.40;;;;;;;3.26;79.27;94549.81;5055255;28;20446;-74
2021/03/19 04:25:16;;;;;;;76.43;43.27;;;;;;;3.30;78.61;94549.50;5055767;28;20445;-74
2021/03/19 04:27:47;;;;;;;65.10;42.63;;;;;;;3.29;79.09;94554.78;5055661;28;20767;-74
2021/03/19 04:30:20;;;;;;;51.57;31.07;;;;;;;3.26;79.40;94548.03;5020630;28;20457;-74
2021/03/19 04:32:48;;;;;;;48.43;25.57;;;;;;;3.21;78.77;94547.50;5055120;28;20485;-73
2021/03/19 04:35:16;;;;;;;46.20;29.27;;;;;;;3.14;78.78;94556.56;5055204;28;20453;-74
2021/03/19 04:37:42;;;;;;;54.03;29.57;;;;;;;3.13;79.32;94551.47;5020593;28;20445;-74
2021/03/19 04:40:10;;;;;;;46.23;28.17;;;;;;;3.17;79.97;94556.38;5054950;28;20467;-74
2021/03/19 04:42:36;;;;;;;57.80;36.10;;;;;;;3.27;79.92;94556.66;5018770;28;20980;-74
2021/03/19 04:45:05;;;;;;;48.67;31.90;;;;;;;3.33;79.35;94553.69;5054936;28;20449;-74
2021/03/19 04:47:31;;;;;;;45.57;29.37;;;;;;;3.35;78.66;94559.59;5036636;28;20776;-73
2021/03/19 04:49:58;;;;;;;48.13;27.43;;;;;;;3.38;79.63;94559.41;5055181;28;20775;-74
2021/03/19 04:52:24;;;;;;;47.07;28.67;;;;;;;3.40;78.84;94560.97;5054924;28;20485;-74
2021/03/19 04:54:51;;;;;;;40.13;25.23;;;;;;;3.43;79.35;94565.97;5054875;28;20445;-73
2021/03/19 04:57:17;;;;;;;41.60;24.63;;;;;;;3.43;78.60;94559.94;5055153;28;20445;-74
2021/03/19 04:59:44;;;;;;;42.27;25.27;;;;;;;3.39;79.19;94558.47;5055193;28;20445;-78
2021/03/19 05:02:10;;;;;;;44.47;26.33;;;;;;;3.38;79.79;94564.59;5054892;28;20436;-78
2021/03/19 05:04:36;;;;;;;37.77;25.30;;;;;;;3.42;79.59;94571.25;5054410;28;20434;-76
2021/03/19 05:07:07;;;;;;;40.23;26.87;;;;;;;3.42;80.20;94563.47;5054295;28;20449;-74
2021/03/19 05:09:33;;;;;;;45.47;25.17;;;;;;;3.43;79.58;94567.72;5035745;28;21004;-73
2021/03/19 05:12:04;;;;;;;43.53;27.93;;;;;;;3.42;79.64;94566.91;5054117;28;20490;-73
2021/03/19 05:14:31;;;;;;;41.53;25.83;;;;;;;3.42;80.43;94566.06;5054174;28;20453;-73
2021/03/19 05:16:58;;;;;;;47.00;28.47;;;;;;;3.37;80.29;94563.75;5054832;28;20441;-74
2021/03/19 05:19:25;;;;;;;56.93;29.37;;;;;;;3.38;80.51;94567.19;5054191;28;20453;-73
2021/03/19 05:21:52;;;;;;;49.90;27.13;;;;;;;3.39;80.38;94567.09;5054042;28;20536;-73
2021/03/19 05:24:19;;;;;;;42.53;25.97;;;;;;;3.37;81.24;94571.53;5054552;28;20453;-73
2021/03/19 05:26:46;;;;;;;42.07;26.80;;;;;;;3.38;81.47;94574.97;5052735;28;20453;-73
2021/03/19 05:29:13;;;;;;;38.87;26.40;;;;;;;3.38;80.64;94578.38;5054172;28;20445;-73
2021/03/19 05:31:41;;;;;;;37.57;24.80;;;;;;;3.40;81.26;94576.53;5054270;28;20493;-72
2021/03/19 05:34:10;;;;;;;45.33;28.97;;;;;;;3.47;80.56;94577.00;5054317;28;20498;-73
2021/03/19 05:36:36;;;;;;;46.67;29.10;;;;;;;3.49;80.90;94575.16;5054448;28;20465;-73
2021/03/19 05:39:04;;;;;;;47.63;29.10;;;;;;;3.60;80.54;94585.69;5035265;28;20437;-71
2021/03/19 05:41:35;;;;;;;48.77;29.20;;;;;;;3.68;80.09;94587.78;5054397;28;20496;-72
2021/03/19 05:44:06;;;;;;;55.03;29.17;;;;;;;3.69;79.28;94587.69;5054086;28;20514;-73
2021/03/19 05:46:35;;;;;;;45.77;28.03;;;;;;;3.74;79.27;94593.41;5054252;28;20955;-73
2021/03/19 05:49:10;;;;;;;49.23;30.47;;;;;;;3.76;79.37;94595.06;5054027;28;20460;-73
2021/03/19 05:51:40;;;;;;;51.97;30.90;;;;;;;3.78;79.99;94591.50;5053754;28;21053;-73
2021/03/19 05:54:22;;;;;;;56.93;30.87;;;;;;;3.78;79.18;94598.44;5053865;28;20446;-73
2021/03/19 05:57:01;;;;;;;65.70;34.17;;;;;;;3.82;79.33;94605.09;5053826;28;20445;-73
2021/03/19 05:59:27;;;;;;;62.47;32.40;;;;;;;3.85;79.84;94592.75;5053893;28;20449;-74
2021/03/19 06:01:54;;;;;;;63.43;30.57;;;;;;;3.93;79.19;94602.66;5053746;28;20456;-74
2021/03/19 06:04:23;;;;;;;56.37;29.37;;;;;;;3.96;78.30;94602.44;5053440;28;20456;-74
2021/03/19 06:06:54;;;;;;;52.57;29.00;;;;;;;3.95;77.68;94606.81;5053653;28;20453;-74
2021/03/19 06:09:26;;;;;;;49.83;27.10;;;;;;;3.85;77.81;94604.91;5053698;28;20441;-73
2021/03/19 06:11:56;;;;;;;40.60;24.30;;;;;;;3.91;78.29;94601.91;5053558;28;20480;-74
2021/03/19 06:14:26;;;;;;;36.50;21.67;;;;;;;3.99;77.40;94602.25;5052791;28;20468;-73
2021/03/19 06:16:58;;;;;;;37.97;19.10;;;;;;;4.05;75.27;94594.09;5052799;28;20453;-74
2021/03/19 06:19:32;;;;;;;26.97;19.07;;;;;;;4.14;74.73;94600.44;5052639;28;20453;-74
2021/03/19 06:22:06;;;;;;;27.53;17.57;;;;;;;4.20;73.76;94602.63;5052544;28;20450;-74
2021/03/19 06:24:34;;;;;;;55.70;28.60;;;;;;;4.25;73.07;94604.00;5053017;28;20448;-73
2021/03/19 06:27:19;;;;;;;38.10;25.27;;;;;;;4.31;72.99;94607.97;5053253;28;20445;-72
2021/03/19 06:29:48;;;;;;;123.60;47.53;;;;;;;4.37;71.81;94609.34;5052858;28;20445;-74
2021/03/19 06:32:24;;;;;;;75.43;38.70;;;;;;;4.44;72.22;94615.81;5053021;28;20484;-73
2021/03/19 06:34:59;;;;;;;49.97;28.27;;;;;;;4.53;70.82;94617.78;5052954;28;20451;-74
2021/03/19 06:37:32;;;;;;;77.80;41.20;;;;;;;4.43;73.19;94624.53;5053300;28;20461;-73
2021/03/19 06:40:02;;;;;;;69.40;38.40;;;;;;;4.47;75.58;94621.63;5052909;28;20446;-73
2021/03/19 06:42:33;;;;;;;67.53;37.93;;;;;;;4.38;75.77;94617.03;5053172;28;20449;-73
2021/03/19 06:45:17;;;;;;;60.50;34.27;;;;;;;4.62;75.77;94627.56;5053063;28;20487;-73
2021/03/19 06:47:47;;;;;;;58.10;35.10;;;;;;;4.70;75.09;94625.31;5053089;28;20490;-73
2021/03/19 06:50:33;;;;;;;56.33;34.70;;;;;;;5.01;74.40;94623.28;5052841;28;20437;-73
2021/03/19 06:53:15;;;;;;;59.90;34.70;;;;;;;5.41;74.17;94616.19;5052708;28;20484;-74
2021/03/19 06:55:45;;;;;;;53.73;32.40;;;;;;;5.67;70.34;94632.59;5053354;28;20924;-73
2021/03/19 06:58:12;;;;;;;46.93;28.80;;;;;;;6.07;69.33;94631.50;5052866;28;20445;-74
2021/03/19 07:00:42;;;;;;;45.73;30.30;;;;;;;6.24;69.43;94632.88;5053025;28;20446;-74
2021/03/19 07:03:31;;;;;;;45.20;29.00;;;;;;;6.48;68.49;94631.09;5052816;28;20926;-78
2021/03/19 07:06:20;;;;;;;38.03;23.60;;;;;;;6.46;66.36;94630.38;5053197;28;20447;-75
2021/03/19 07:08:55;;;;;;;36.17;21.90;;;;;;;6.43;65.78;94624.56;5052828;28;20453;-74
2021/03/19 07:11:55;;;;;;;43.70;25.30;;;;;;;6.28;67.53;94626.50;5053032;28;20837;-75
2021/03/19 07:14:46;;;;;;;34.03;22.07;;;;;;;6.76;64.72;94629.91;5053228;28;20449;-75
2021/03/19 07:17:24;;;;;;;35.73;22.70;;;;;;;6.55;63.76;94621.06;5034383;28;20445;-73
2021/03/19 07:20:02;;;;;;;32.40;21.03;;;;;;;6.63;64.20;94623.91;5052970;28;20444;-74
2021/03/19 07:22:54;;;;;;;35.47;21.97;;;;;;;7.00;62.88;94629.03;5052869;28;20502;-74
2021/03/19 07:25:45;;;;;;;30.67;19.47;;;;;;;7.38;59.38;94632.19;5053158;28;20449;-75
2021/03/19 07:28:37;;;;;;;38.27;21.10;;;;;;;7.48;58.08;94629.69;4991327;28;20452;-74
2021/03/19 07:31:33;;;;;;;32.13;19.27;;;;;;;7.56;56.69;94629.94;4952267;28;20533;-74
2021/03/19 07:34:47;;;;;;;30.00;18.93;;;;;;;7.99;56.03;94629.19;4953189;29;20453;-76
2021/03/19 07:37:29;;;;;;;30.83;20.40;;;;;;;8.00;55.42;94621.22;4840437;29;20463;-76
2021/03/19 07:40:18;;;;;;;29.67;21.00;;;;;;;7.65;55.46;94623.16;4840007;29;20546;-76
2021/03/19 07:43:08;;;;;;;39.33;23.00;;;;;;;7.33;57.26;94625.66;4840709;29;20456;-76
2021/03/19 07:45:42;;;;;;;27.30;18.43;;;;;;;7.25;56.54;94625.41;4827838;29;20545;-76
2021/03/19 07:48:20;;;;;;;31.17;16.97;;;;;;;7.49;56.31;94620.06;4843541;29;20851;-76
2021/03/19 07:51:06;;;;;;;34.70;20.57;;;;;;;7.83;55.19;94620.91;4843664;29;20439;-76
2021/03/19 07:53:55;;;;;;;38.90;22.57;;;;;;;7.93;55.65;94612.22;4843083;29;20790;-77
2021/03/19 07:56:54;;;;;;;37.50;23.13;;;;;;;7.53;57.46;94618.91;4843384;29;20459;-75
2021/03/19 07:59:29;;;;;;;34.27;21.10;;;;;;;7.05;57.22;94616.47;4842907;29;20463;-75
2021/03/19 08:02:06;;;;;;;32.87;22.07;;;;;;;6.94;58.29;94617.28;4828048;29;20469;-77
2021/03/19 08:04:38;;;;;;;36.27;21.73;;;;;;;6.97;58.41;94608.41;4846689;29;20943;-76
2021/03/19 08:07:24;;;;;;;31.33;20.63;;;;;;;7.13;58.81;94612.31;4879258;28;20451;-76
2021/03/19 08:10:01;;;;;;;21.53;15.80;;;;;;;7.52;56.43;94614.59;4898787;29;20965;-76
2021/03/19 08:12:36;;;;;;;27.43;18.27;;;;;;;7.57;54.82;94615.09;4898483;29;20919;-75
2021/03/19 08:15:15;;;;;;;22.30;13.00;;;;;;;7.59;56.83;94614.03;4970977;28;20498;-76
2021/03/19 08:17:53;;;;;;;19.53;13.33;;;;;;;7.55;53.83;94620.44;4994574;28;20444;-76
2021/03/19 08:20:32;;;;;;;24.67;16.30;;;;;;;7.65;53.96;94610.13;4994167;28;20448;-75
2021/03/19 08:23:05;;;;;;;29.57;17.63;;;;;;;7.40;55.64;94613.78;4993857;28;20428;-75
2021/03/19 08:25:38;;;;;;;22.03;17.00;;;;;;;7.45;55.83;94609.03;4994026;28;20456;-75
2021/03/19 08:28:15;;;;;;;22.87;12.13;;;;;;;7.43;53.28;94609.16;4993815;28;20447;-76
2021/03/19 08:30:48;;;;;;;14.83;11.37;;;;;;;7.38;54.29;94608.69;4993547;28;20476;-74
2021/03/19 08:33:25;;;;;;;18.47;11.80;;;;;;;7.19;53.45;94618.84;4994133;28;20442;-75
2021/03/19 08:36:00;;;;;;;19.60;12.23;;;;;;;6.79;54.57;94611.44;4993611;28;20432;-75
2021/03/19 08:38:32;;;;;;;16.30;11.37;;;;;;;6.59;54.19;94606.84;4993534;28;20483;-75
2021/03/19 08:41:02;;;;;;;21.83;13.97;;;;;;;6.37;55.84;94610.22;4994080;28;20452;-76
2021/03/19 08:43:34;;;;;;;20.93;12.33;;;;;;;6.26;56.06;94609.31;4993519;28;20447;-76
2021/03/19 08:46:11;;;;;;;15.27;10.83;;;;;;;6.34;56.60;94605.19;5000862;28;20467;-76
2021/03/19 08:48:49;;;;;;;20.60;13.07;;;;;;;6.32;57.00;94594.06;5036977;28;20445;-76
2021/03/19 08:51:23;;;;;;;18.43;12.83;;;;;;;6.57;57.19;94603.53;5019799;28;20506;-76
2021/03/19 08:54:20;;;;;;;19.27;12.90;;;;;;;6.76;55.79;94597.78;5045800;28;20448;-76
2021/03/19 08:56:48;;;;;;;20.43;12.27;;;;;;;6.51;55.31;94598.78;5035169;28;20450;-76
2021/03/19 08:59:50;;;;;;;16.73;11.70;;;;;;;6.44;55.54;94598.41;5034511;28;20848;-76
2021/03/19 09:02:51;;;;;;;24.70;13.90;;;;;;;6.64;56.77;94609.09;4973876;28;20969;-76
2021/03/19 09:05:29;;;;;;;16.37;11.83;;;;;;;6.77;56.79;94597.66;4897373;29;20456;-76
2021/03/19 09:08:27;;;;;;;20.23;12.13;;;;;;;7.21;59.99;94588.25;4897848;29;20487;-76
2021/03/19 09:11:06;;;;;;;14.83;11.30;;;;;;;7.73;59.47;94592.06;4841712;29;20452;-76
2021/03/19 09:13:33;;;;;;;21.67;12.73;;;;;;;8.11;55.08;94588.22;4841629;29;20460;-76
2021/03/19 09:16:38;;;;;;;15.87;11.30;;;;;;;8.23;53.25;94589.84;4842193;29;20491;-76
2021/03/19 09:19:45;;;;;;;16.23;12.30;;;;;;;7.73;54.62;94590.28;4841331;29;20461;-77
2021/03/19 09:22:33;;;;;;;15.57;11.60;;;;;;;7.64;53.94;94590.16;4805075;29;20465;-76
2021/03/19 09:25:40;;;;;;;17.10;12.23;;;;;;;7.52;54.34;94586.75;4790490;29;20452;-76
2021/03/19 09:28:31;;;;;;;17.93;11.37;;;;;;;7.47;55.30;94586.25;4787085;30;20447;-76
2021/03/19 09:31:04;;;;;;;15.47;10.50;;;;;;;7.62;53.01;94586.84;4786732;30;21255;-76
2021/03/19 09:34:01;;;;;;;15.97;11.37;;;;;;;7.64;53.06;94590.16;4786839;30;20510;-76
2021/03/19 09:36:51;;;;;;;17.20;12.67;;;;;;;7.88;54.18;94590.88;4821276;29;20530;-76
2021/03/19 09:39:47;;;;;;;14.77;10.97;;;;;;;8.10;51.90;94590.00;4871480;29;20514;-76
2021/03/19 09:42:45;;;;;;;16.53;11.30;;;;;;;8.11;52.95;94586.44;4896809;29;20965;-76
2021/03/19 09:45:22;;;;;;;14.60;10.93;;;;;;;8.10;51.24;94591.78;4896279;29;20457;-77
2021/03/19 09:47:51;;;;;;;14.27;10.87;;;;;;;8.13;52.20;94586.31;4972195;28;20520;-77
2021/03/19 09:50:21;;;;;;;14.67;11.07;;;;;;;8.07;51.83;94582.38;4971898;28;20456;-77
2021/03/19 09:53:00;;;;;;;18.60;12.93;;;;;;;8.20;52.98;94590.06;4971975;28;21027;-76
2021/03/19 09:55:36;;;;;;;14.57;10.67;;;;;;;8.42;52.24;94576.97;4971674;28;20450;-77
2021/03/19 09:58:09;;;;;;;13.10;10.27;;;;;;;8.77;50.89;94576.69;4940625;28;20949;-76
2021/03/19 10:00:36;;;;;;;13.73;10.57;;;;;;;9.00;50.53;94573.00;4958971;28;20546;-77
2021/03/19 10:03:09;;;;;;;16.00;11.47;;;;;;;9.00;48.02;94577.41;5029030;28;20545;-76
2021/03/19 10:05:38;;;;;;;17.47;12.80;;;;;;;8.73;49.70;94580.53;5032023;28;20483;-77
2021/03/19 10:08:05;;;;;;;17.50;12.20;;;;;;;8.47;51.82;94585.28;5032694;28;20451;-76
2021/03/19 10:10:34;;;;;;;24.40;13.13;;;;;;;8.42;51.24;94582.22;5032827;28;20932;-76
2021/03/19 10:13:16;;;;;;;16.13;12.00;;;;;;;8.35;51.05;94581.03;5032612;28;20482;-77
2021/03/19 10:15:43;;;;;;;20.67;13.03;;;;;;;8.32;50.63;94586.47;5032633;28;20820;-76
2021/03/19 10:18:24;;;;;;;16.90;11.40;;;;;;;8.34;50.66;94572.34;5032929;28;20448;-77
2021/03/19 10:20:54;;;;;;;23.27;11.90;;;;;;;8.51;51.04;94586.69;5032598;28;20451;-77
2021/03/19 10:23:30;;;;;;;17.53;11.90;;;;;;;8.62;51.61;94584.00;5032489;28;20530;-78
2021/03/19 10:26:17;;;;;;;15.50;11.47;;;;;;;8.79;51.54;94585.25;5032418;28;20858;-77
2021/03/19 10:28:49;;;;;;;19.03;11.47;;;;;;;8.95;51.85;94590.84;5032793;28;20459;-77
2021/03/19 10:31:20;;;;;;;21.40;13.10;;;;;;;9.16;51.04;94576.94;5032522;28;20482;-77
2021/03/19 10:33:55;;;;;;;16.77;11.90;;;;;;;9.24;49.91;94572.69;5032541;28;20449;-77
2021/03/19 10:36:34;;;;;;;21.80;12.00;;;;;;;9.20;49.56;94573.09;5032378;28;20794;-78
2021/03/19 10:39:10;;;;;;;17.00;12.40;;;;;;;8.90;48.61;94576.50;5032394;28;20451;-76
2021/03/19 10:41:42;;;;;;;18.20;11.20;;;;;;;8.80;49.26;94578.22;5032596;28;20474;-76
2021/03/19 10:44:16;;;;;;;12.10;10.03;;;;;;;8.62;49.00;94576.16;5032267;28;20453;-76
2021/03/19 10:46:49;;;;;;;17.97;11.93;;;;;;;8.55;49.78;94575.00;4997265;28;20434;-76
2021/03/19 10:49:18;;;;;;;31.37;13.73;;;;;;;8.48;50.87;94573.03;5032347;28;20459;-76
2021/03/19 10:51:49;;;;;;;20.07;11.87;;;;;;;8.47;49.99;94559.13;5031969;28;20489;-76
2021/03/19 10:54:22;;;;;;;19.83;11.10;;;;;;;8.49;50.08;94562.44;5032253;28;20613;-77
2021/03/19 10:56:54;;;;;;;15.80;12.87;;;;;;;8.58;50.40;94556.44;5031976;28;20455;-76
2021/03/19 10:59:33;;;;;;;20.20;12.70;;;;;;;8.32;50.27;94555.94;5032072;28;20487;-76
2021/03/19 11:02:25;;;;;;;17.03;11.80;;;;;;;8.29;49.82;94552.72;5013277;28;20940;-76
2021/03/19 11:05:12;;;;;;;16.20;11.27;;;;;;;8.14;49.80;94552.22;4970831;28;20951;-76
2021/03/19 11:07:43;;;;;;;14.30;10.07;;;;;;;8.13;49.62;94552.34;4970741;28;20461;-76
2021/03/19 11:10:47;;;;;;;14.83;9.90;;;;;;;8.20;49.09;94556.09;4970904;28;20505;-76
2021/03/19 11:13:35;;;;;;;16.27;10.50;;;;;;;8.15;47.95;94561.72;4970719;28;20549;-75
2021/03/19 11:16:05;;;;;;;19.33;12.23;;;;;;;8.13;49.62;94562.78;4913309;29;20461;-75
2021/03/19 11:18:38;;;;;;;18.80;11.20;;;;;;;7.95;50.57;94547.63;4917284;29;20507;-76
2021/03/19 11:21:29;;;;;;;11.40;9.27;;;;;;;7.85;48.65;94543.25;4917925;29;21442;-77
2021/03/19 11:24:12;;;;;;;12.33;10.00;;;;;;;7.87;48.97;94544.78;4917832;29;20444;-77
2021/03/19 11:26:40;;;;;;;14.27;10.33;;;;;;;7.85;48.97;94540.66;4918114;29;20497;-77
2021/03/19 11:29:19;;;;;;;20.07;10.53;;;;;;;7.93;49.73;94553.91;4917894;29;20537;-76
2021/03/19 11:32:07;;;;;;;17.50;10.50;;;;;;;8.06;48.12;94550.19;4917726;29;20516;-75
2021/03/19 11:34:38;;;;;;;14.30;8.93;;;;;;;8.23;48.23;94550.63;4917645;29;20456;-77
2021/03/19 11:37:09;;;;;;;13.03;9.70;;;;;;;8.34;47.86;94553.22;4918121;29;20446;-76
2021/03/19 11:40:03;;;;;;;15.23;11.50;;;;;;;8.42;47.21;94540.38;4917004;29;20450;-76
2021/03/19 11:42:31;;;;;;;17.87;11.50;;;;;;;8.55;46.75;94542.78;4992797;28;20480;-75
2021/03/19 11:45:02;;;;;;;14.60;9.80;;;;;;;8.55;47.32;94535.78;4994025;28;20459;-75
2021/03/19 11:47:32;;;;;;;20.63;10.40;;;;;;;8.71;47.60;94537.16;4961077;28;20496;-74
2021/03/19 11:50:13;;;;;;;13.80;9.50;;;;;;;8.82;46.36;94534.44;4993899;28;20450;-75
2021/03/19 11:52:40;;;;;;;10.70;9.60;;;;;;;8.94;46.32;94528.16;5011004;28;20536;-74
2021/03/19 11:55:08;;;;;;;16.70;12.57;;;;;;;8.95;50.30;94532.44;5036157;28;20447;-76
2021/03/19 11:57:34;;;;;;;11.73;10.00;;;;;;;8.94;46.73;94528.16;5017453;28;20521;-75
2021/03/19 12:00:00;;;;;;;19.63;12.43;;;;;;;8.82;45.33;94527.44;5017368;28;20504;-75